createdAt,value
2022-11-01T00:00:55.703Z,101711.34
2022-11-01T00:03:26.017Z,101733.97
2022-11-01T00:05:56.389Z,101701.78
2022-11-01T00:08:27.062Z,101734.00
2022-11-01T00:11:05.435Z,101728.75
2022-11-01T00:13:35.697Z,101730.50
2022-11-01T00:16:06.368Z,101739.22
2022-11-01T00:18:37.206Z,101717.47
2022-11-01T00:21:07.625Z,101746.19
2022-11-01T00:23:38.037Z,101734.88
2022-11-01T00:26:10.162Z,101732.25
2022-11-01T00:28:40.580Z,101719.16
2022-11-01T00:31:12.798Z,101703.50
2022-11-01T00:33:43.618Z,101706.97
2022-11-01T00:36:14.455Z,101723.53
2022-11-01T00:38:44.880Z,101711.34
2022-11-01T00:41:15.863Z,101709.59
2022-11-01T00:43:46.181Z,101700.00
2022-11-01T00:46:17.341Z,101712.22
2022-11-01T00:48:47.594Z,101717.44
2022-11-01T00:51:18.080Z,101699.13
2022-11-01T00:53:48.638Z,101697.38
2022-11-01T00:56:19.136Z,101693.03
2022-11-01T00:58:49.555Z,101685.22
2022-11-01T01:01:19.984Z,101696.53
2022-11-01T01:03:50.507Z,101690.41
2022-11-01T01:06:21.660Z,101685.22
2022-11-01T01:08:52.128Z,101699.97
2022-11-01T01:11:22.372Z,101699.16
2022-11-01T01:13:52.838Z,101673.00
2022-11-01T01:16:23.452Z,101676.47
2022-11-01T01:18:54.250Z,101694.75
2022-11-01T01:21:24.634Z,101691.28
2022-11-01T01:23:55.181Z,101685.19
2022-11-01T01:26:25.433Z,101667.78
2022-11-01T01:28:56.169Z,101676.47
2022-11-01T01:31:26.607Z,101675.59
2022-11-01T01:33:58.845Z,101674.72
2022-11-01T01:36:29.097Z,101674.72
2022-11-01T01:38:59.688Z,101638.19
2022-11-01T01:41:48.650Z,101643.38
2022-11-01T01:44:46.997Z,101665.13
2022-11-01T01:47:48.448Z,101657.28
2022-11-01T01:50:31.522Z,101662.50
2022-11-01T01:53:17.854Z,101652.06
2022-11-01T01:55:56.821Z,101651.19
2022-11-01T01:58:35.394Z,101652.09
2022-11-01T02:01:06.025Z,101644.22
2022-11-01T02:03:37.557Z,101617.25
2022-11-01T02:06:19.311Z,101635.53
2022-11-01T02:09:01.174Z,101634.66
2022-11-01T02:11:31.398Z,101637.25
2022-11-01T02:14:02.863Z,101625.94
2022-11-01T02:16:58.210Z,101642.47
2022-11-01T02:20:00.813Z,101635.50
2022-11-01T02:22:55.827Z,101642.47
2022-11-01T02:26:23.302Z,101639.84
2022-11-01T02:29:08.512Z,101639.84
2022-11-01T02:31:41.535Z,101640.75
2022-11-01T02:34:29.686Z,101631.16
2022-11-01T02:37:21.068Z,101641.59
2022-11-01T02:40:02.367Z,101632.91
2022-11-01T02:42:39.063Z,101624.19
2022-11-01T02:45:27.927Z,101632.91
2022-11-01T02:47:59.999Z,101632.03
2022-11-01T02:50:54.453Z,101612.00
2022-11-01T02:53:24.657Z,101616.34
2022-11-01T02:55:54.771Z,101625.94
2022-11-01T02:58:29.763Z,101632.91
2022-11-01T03:00:59.795Z,101636.38
2022-11-01T03:03:35.598Z,101633.75
2022-11-01T03:06:05.774Z,101638.13
2022-11-01T03:08:40.871Z,101624.19
2022-11-01T03:11:23.108Z,101634.63
2022-11-01T03:14:29.470Z,101645.09
2022-11-01T03:17:09.939Z,101635.50
2022-11-01T03:19:56.834Z,101633.75
2022-11-01T03:22:48.902Z,101634.63
2022-11-01T03:25:44.532Z,101644.22
2022-11-01T03:28:21.951Z,101638.13
2022-11-01T03:31:02.435Z,101634.66
2022-11-01T03:33:35.306Z,101633.81
2022-11-01T03:36:13.589Z,101625.94
2022-11-01T03:38:51.947Z,101638.13
2022-11-01T03:41:25.012Z,101630.28
2022-11-01T03:43:55.622Z,101632.03
2022-11-01T03:46:26.398Z,101627.69
2022-11-01T03:48:56.792Z,101632.91
2022-11-01T03:51:26.899Z,101642.47
2022-11-01T03:53:57.248Z,101635.53
2022-11-01T03:56:27.440Z,101645.94
2022-11-01T03:58:57.652Z,101646.84
2022-11-01T04:01:28.042Z,101636.38
2022-11-01T04:03:58.191Z,101633.78
2022-11-01T04:06:28.364Z,101635.50
2022-11-01T04:08:58.624Z,101645.94
2022-11-01T04:11:28.795Z,101640.72
2022-11-01T04:14:18.859Z,101645.94
2022-11-01T04:17:07.520Z,101639.84
2022-11-01T04:19:56.400Z,101639.84
2022-11-01T04:22:26.521Z,101628.56
2022-11-01T04:24:56.655Z,101621.56
2022-11-01T04:27:26.698Z,101617.25
2022-11-01T04:29:56.872Z,101638.97
2022-11-01T04:32:26.959Z,101634.63
2022-11-01T04:34:57.087Z,101624.19
2022-11-01T04:37:27.167Z,101629.38
2022-11-01T04:39:57.206Z,101617.19
2022-11-01T04:42:27.361Z,101586.75
2022-11-01T04:44:57.452Z,101621.53
2022-11-01T04:47:27.879Z,101618.94
2022-11-01T04:49:58.045Z,101602.34
2022-11-01T04:52:28.138Z,101600.59
2022-11-01T04:54:58.198Z,101591.03
2022-11-01T04:57:28.395Z,101585.78
2022-11-01T04:59:58.503Z,101574.50
2022-11-01T05:02:30.472Z,101583.16
2022-11-01T05:05:00.506Z,101563.16
2022-11-01T05:07:30.592Z,101577.06
2022-11-01T05:10:01.138Z,101577.97
2022-11-01T05:12:31.476Z,101581.44
2022-11-01T05:15:01.611Z,101556.16
2022-11-01T05:17:31.818Z,101570.09
2022-11-01T05:20:02.231Z,101562.28
2022-11-01T05:22:32.289Z,101566.59
2022-11-01T05:25:02.979Z,101555.31
2022-11-01T05:27:33.058Z,101559.63
2022-11-01T05:30:04.354Z,101559.66
2022-11-01T05:32:35.802Z,101567.47
2022-11-01T05:35:06.451Z,101578.78
2022-11-01T05:37:37.077Z,101573.59
2022-11-01T05:40:08.103Z,101578.84
2022-11-01T05:42:39.753Z,101577.09
2022-11-01T05:45:10.758Z,101557.13
2022-11-01T05:47:41.580Z,101573.59
2022-11-01T05:50:14.675Z,101564.91
2022-11-01T05:52:45.102Z,101560.53
2022-11-01T05:55:15.290Z,101568.38
2022-11-01T05:57:45.443Z,101556.19
2022-11-01T06:00:15.728Z,101564.03
2022-11-01T06:02:45.855Z,101538.78
2022-11-01T06:05:16.150Z,101543.13
2022-11-01T06:07:46.254Z,101556.16
2022-11-01T06:10:16.551Z,101565.75
2022-11-01T06:12:46.707Z,101560.53
2022-11-01T06:15:16.933Z,101554.41
2022-11-01T06:17:47.001Z,101534.44
2022-11-01T06:20:17.163Z,101557.91
2022-11-01T06:22:47.289Z,101542.25
2022-11-01T06:25:17.562Z,101543.97
2022-11-01T06:27:48.240Z,101558.75
2022-11-01T06:30:18.410Z,101541.38
2022-11-01T06:32:48.483Z,101552.66
2022-11-01T06:35:18.838Z,101537.94
2022-11-01T06:37:48.953Z,101575.31
2022-11-01T06:40:19.051Z,101557.03
2022-11-01T06:42:49.186Z,101523.13
2022-11-01T06:45:19.321Z,101556.16
2022-11-01T06:47:49.530Z,101550.06
2022-11-01T06:50:19.691Z,101549.19
2022-11-01T06:52:50.462Z,101555.28
2022-11-01T06:55:20.583Z,101551.81
2022-11-01T06:57:59.112Z,101558.75
2022-11-01T07:00:30.872Z,101563.13
2022-11-01T07:03:10.426Z,101544.88
2022-11-01T07:05:40.997Z,101535.31
2022-11-01T07:08:13.424Z,101566.59
2022-11-01T07:10:43.984Z,101552.69
2022-11-01T07:13:14.278Z,101558.78
2022-11-01T07:15:44.396Z,101557.91
2022-11-01T07:18:14.585Z,101550.06
2022-11-01T07:23:18.602Z,101543.06
2022-11-01T07:25:53.060Z,101512.63
2022-11-01T07:28:23.642Z,101534.34
2022-11-01T07:30:55.284Z,101524.78
2022-11-01T07:33:25.495Z,101537.78
2022-11-01T07:35:55.562Z,101519.50
2022-11-01T07:38:25.702Z,101514.34
2022-11-01T07:40:55.837Z,101505.59
2022-11-01T07:43:26.045Z,101496.91
2022-11-01T07:46:00.652Z,101502.97
2022-11-01T07:48:30.902Z,101509.94
2022-11-01T07:51:03.017Z,101505.59
2022-11-01T07:53:34.159Z,101503.91
2022-11-01T07:56:04.504Z,101496.91
2022-11-01T07:58:34.664Z,101510.81
2022-11-01T08:01:04.810Z,101498.63
2022-11-01T08:03:35.038Z,101475.19
2022-11-01T08:06:05.373Z,101502.06
2022-11-01T08:08:36.967Z,101492.47
2022-11-01T08:11:07.139Z,101480.25
2022-11-01T08:13:37.309Z,101461.97
2022-11-01T08:16:07.850Z,101476.72
2022-11-01T08:18:37.897Z,101448.88
2022-11-01T08:21:08.129Z,101467.13
2022-11-01T08:23:38.564Z,101444.47
2022-11-01T08:26:08.723Z,101444.41
2022-11-01T08:28:38.947Z,101456.59
2022-11-01T08:31:10.341Z,101441.75
2022-11-01T08:33:40.451Z,101436.56
2022-11-01T08:36:10.584Z,101434.84
2022-11-01T08:38:40.719Z,101447.03
2022-11-01T08:41:10.866Z,101447.03
2022-11-01T08:43:41.072Z,101440.94
2022-11-01T08:46:11.320Z,101444.41
2022-11-01T08:48:41.675Z,101438.31
2022-11-01T08:51:11.880Z,101446.13
2022-11-01T08:53:42.002Z,101463.50
2022-11-01T08:56:12.165Z,101452.19
2022-11-01T08:58:42.304Z,101456.41
2022-11-01T09:01:12.546Z,101453.75
2022-11-01T09:03:43.057Z,101431.13
2022-11-01T09:06:13.997Z,101452.03
2022-11-01T09:08:44.135Z,101445.94
2022-11-01T09:11:14.675Z,101440.66
2022-11-01T09:13:44.789Z,101434.56
2022-11-01T09:16:15.269Z,101443.25
2022-11-01T09:18:45.670Z,101471.19
2022-11-01T09:21:17.302Z,101483.47
2022-11-01T09:23:47.634Z,101474.81
2022-11-01T09:26:17.866Z,101462.66
2022-11-01T09:28:48.100Z,101495.69
2022-11-01T09:31:22.065Z,101474.00
2022-11-01T09:33:57.978Z,101474.84
2022-11-01T09:36:29.488Z,101503.56
2022-11-01T09:38:59.846Z,101515.75
2022-11-01T09:41:35.908Z,101525.41
2022-11-01T09:44:08.443Z,101516.72
2022-11-01T09:46:55.511Z,101501.09
2022-11-01T09:49:50.538Z,101496.69
2022-11-01T09:52:23.768Z,101498.41
2022-11-01T09:54:54.087Z,101503.66
2022-11-01T09:57:33.641Z,101503.69
2022-11-01T10:00:04.629Z,101506.31
2022-11-01T10:02:38.727Z,101495.84
2022-11-01T10:05:36.339Z,101492.31
2022-11-01T10:08:30.828Z,101499.34
2022-11-01T10:11:08.629Z,101487.13
2022-11-01T10:14:05.636Z,101494.97
2022-11-01T10:16:38.513Z,101475.84
2022-11-01T10:19:19.348Z,101465.38
2022-11-01T10:21:54.692Z,101462.72
2022-11-01T10:24:35.276Z,101469.63
2022-11-01T10:27:27.294Z,101476.56
2022-11-01T10:30:04.883Z,101454.78
2022-11-01T10:32:58.739Z,101466.88
2022-11-01T10:35:45.143Z,101474.72
2022-11-01T10:38:49.938Z,101490.44
2022-11-01T10:41:36.789Z,101479.94
2022-11-01T10:44:21.572Z,101459.03
2022-11-01T10:46:53.611Z,101448.56
2022-11-01T10:50:00.509Z,101420.72
2022-11-01T10:52:33.510Z,101434.53
2022-11-01T10:55:06.546Z,101423.19
2022-11-01T10:57:46.111Z,101424.88
2022-11-01T11:00:20.281Z,101432.63
2022-11-01T11:02:57.982Z,101427.44
2022-11-01T11:05:31.008Z,101443.91
2022-11-01T11:08:05.562Z,101432.59
2022-11-01T11:10:36.498Z,101423.97
2022-11-01T11:13:09.733Z,101452.59
2022-11-01T11:15:42.828Z,101443.81
2022-11-01T11:18:21.572Z,101442.09
2022-11-01T11:20:58.900Z,101445.53
2022-11-01T11:23:33.259Z,101432.50
2022-11-01T11:26:08.196Z,101451.63
2022-11-01T11:28:44.857Z,101441.22
2022-11-01T11:31:36.040Z,101443.75
2022-11-01T11:34:27.582Z,101457.69
2022-11-01T11:37:00.439Z,101467.31
2022-11-01T11:39:36.999Z,101480.44
2022-11-01T11:42:16.667Z,101478.69
2022-11-01T11:44:52.115Z,101474.38
2022-11-01T11:47:28.688Z,101466.63
2022-11-01T11:50:00.789Z,101470.19
2022-11-01T11:52:38.544Z,101460.69
2022-11-01T11:55:29.676Z,101460.66
2022-11-01T11:58:00.001Z,101477.31
2022-11-01T12:00:33.545Z,101465.09
2022-11-01T12:03:07.127Z,101455.56
2022-11-01T12:05:37.920Z,101468.63
2022-11-01T12:08:26.110Z,101472.16
2022-11-01T12:11:00.127Z,101440.84
2022-11-01T12:13:38.010Z,101452.97
2022-11-01T12:16:20.804Z,101448.63
2022-11-01T12:18:55.307Z,101465.22
2022-11-01T12:21:41.898Z,101454.84
2022-11-01T12:24:22.929Z,101460.94
2022-11-01T12:27:03.675Z,101459.19
2022-11-01T12:29:40.963Z,101461.75
2022-11-01T12:32:30.944Z,101460.00
2022-11-01T12:35:08.053Z,101472.16
2022-11-01T12:37:48.409Z,101473.03
2022-11-01T12:40:24.530Z,101454.03
2022-11-01T12:43:03.598Z,101461.00
2022-11-01T12:45:50.980Z,101449.66
2022-11-01T12:48:35.595Z,101443.66
2022-11-01T12:51:20.656Z,101464.50
2022-11-01T12:53:59.567Z,101476.72
2022-11-01T12:56:30.841Z,101459.38
2022-11-01T12:59:02.070Z,101453.28
2022-11-01T13:01:43.791Z,101441.06
2022-11-01T13:04:37.756Z,101454.06
2022-11-01T13:07:33.286Z,101447.13
2022-11-01T13:10:28.018Z,101444.50
2022-11-01T13:13:18.378Z,101446.25
2022-11-01T13:16:22.653Z,101431.47
2022-11-01T13:18:53.596Z,101443.63
2022-11-01T13:21:32.155Z,101424.50
2022-11-01T13:24:16.524Z,101440.13
2022-11-01T13:27:17.265Z,101441.84
2022-11-01T13:30:05.321Z,101438.34
2022-11-01T13:33:20.601Z,101444.44
2022-11-01T13:36:06.020Z,101441.81
2022-11-01T13:38:49.349Z,101420.06
2022-11-01T13:41:35.550Z,101435.66
2022-11-01T13:44:14.548Z,101412.97
2022-11-01T13:47:13.772Z,101392.13
2022-11-01T13:50:08.604Z,101402.50
2022-11-01T13:52:45.813Z,101373.91
2022-11-01T13:55:32.447Z,101381.66
2022-11-01T13:58:11.746Z,101393.78
2022-11-01T14:00:44.792Z,101403.38
2022-11-01T14:03:21.404Z,101412.09
2022-11-01T14:06:26.718Z,101423.38
2022-11-01T14:09:25.948Z,101430.41
2022-11-01T14:12:06.345Z,101440.03
2022-11-01T14:14:39.747Z,101440.03
2022-11-01T14:17:17.965Z,101436.59
2022-11-01T14:19:57.248Z,101440.06
2022-11-01T14:22:34.637Z,101445.38
2022-11-01T14:25:32.798Z,101453.22
2022-11-01T14:28:18.792Z,101454.13
2022-11-01T14:30:51.056Z,101447.25
2022-11-01T14:33:22.665Z,101441.13
2022-11-01T14:35:58.636Z,101443.72
2022-11-01T14:38:38.850Z,101440.22
2022-11-01T14:41:12.486Z,101406.28
2022-11-01T14:43:47.989Z,101434.94
2022-11-01T14:46:30.162Z,101427.09
2022-11-01T14:49:21.466Z,101427.09
2022-11-01T14:51:59.528Z,101405.31
2022-11-01T14:55:03.990Z,101408.75
2022-11-01T14:57:35.356Z,101394.81
2022-11-01T15:00:21.149Z,101398.28
2022-11-01T15:02:52.403Z,101385.31
2022-11-01T15:05:22.835Z,101402.66
2022-11-01T15:07:59.493Z,101383.50
2022-11-01T15:10:40.831Z,101358.28
2022-11-01T15:13:15.945Z,101373.94
2022-11-01T15:15:59.137Z,101368.66
2022-11-01T15:18:30.221Z,101366.13
2022-11-01T15:21:01.348Z,101357.44
2022-11-01T15:23:38.201Z,101371.34
2022-11-01T15:26:10.364Z,101373.94
2022-11-01T15:28:50.467Z,101366.19
2022-11-01T15:31:21.516Z,101358.38
2022-11-01T15:34:02.058Z,101364.44
2022-11-01T15:36:35.073Z,101368.81
2022-11-01T15:39:19.532Z,101343.59
2022-11-01T15:41:50.949Z,101346.16
2022-11-01T15:44:31.121Z,101353.13
2022-11-01T15:47:03.878Z,101332.28
2022-11-01T15:49:47.320Z,101357.47
2022-11-01T15:52:25.497Z,101367.94
2022-11-01T15:55:09.492Z,101380.16
2022-11-01T15:57:48.366Z,101381.88
2022-11-01T16:00:24.624Z,101386.28
2022-11-01T16:03:04.073Z,101372.41
2022-11-01T16:05:45.177Z,101378.50
2022-11-01T16:08:30.360Z,101380.25
2022-11-01T16:11:09.263Z,101386.38
2022-11-01T16:13:47.145Z,101374.22
2022-11-01T16:16:17.560Z,101376.81
2022-11-01T16:18:48.435Z,101378.59
2022-11-01T16:21:28.708Z,101402.94
2022-11-01T16:24:09.338Z,101371.66
2022-11-01T16:27:01.785Z,101384.69
2022-11-01T16:29:47.921Z,101382.91
2022-11-01T16:32:23.446Z,101375.09
2022-11-01T16:34:56.075Z,101372.47
2022-11-01T16:37:29.934Z,101353.38
2022-11-01T16:40:23.730Z,101385.50
2022-11-01T16:42:54.916Z,101350.72
2022-11-01T16:45:25.337Z,101382.88
2022-11-01T16:47:58.448Z,101383.78
2022-11-01T16:50:31.980Z,101390.75
2022-11-01T16:53:02.884Z,101394.25
2022-11-01T16:55:36.470Z,101384.72
2022-11-01T16:58:15.627Z,101383.84
2022-11-01T17:00:54.805Z,101381.28
2022-11-01T17:03:25.324Z,101380.44
2022-11-01T17:05:56.505Z,101397.78
2022-11-01T17:08:29.908Z,101387.38
2022-11-01T17:10:59.998Z,101398.69
2022-11-01T17:13:30.164Z,101387.41
2022-11-01T17:16:00.361Z,101401.28
2022-11-01T17:18:34.317Z,101382.19
2022-11-01T17:21:08.142Z,101409.13
2022-11-01T17:23:38.504Z,101412.59
2022-11-01T17:26:11.064Z,101392.66
2022-11-01T17:28:41.398Z,101416.97
2022-11-01T17:31:11.751Z,101433.53
2022-11-01T17:33:41.880Z,101428.28
2022-11-01T17:36:17.118Z,101435.28
2022-11-01T17:38:49.312Z,101425.69
2022-11-01T17:41:20.072Z,101435.28
2022-11-01T17:43:50.304Z,101445.72
2022-11-01T17:46:25.080Z,101443.09
2022-11-01T17:48:55.210Z,101442.22
2022-11-01T17:51:25.336Z,101447.47
2022-11-01T17:53:56.649Z,101441.41
2022-11-01T17:56:26.732Z,101460.53
2022-11-01T17:58:57.019Z,101457.91
2022-11-01T18:01:27.414Z,101448.34
2022-11-01T18:03:57.678Z,101444.88
2022-11-01T18:06:27.777Z,101446.59
2022-11-01T18:08:57.881Z,101452.72
2022-11-01T18:11:46.441Z,101452.72
2022-11-01T18:14:26.698Z,101427.47
2022-11-01T18:17:05.616Z,101444.00
2022-11-01T18:19:59.628Z,101454.44
2022-11-01T18:22:49.620Z,101438.81
2022-11-01T18:25:44.438Z,101457.03
2022-11-01T18:28:19.941Z,101447.50
2022-11-01T18:30:58.995Z,101443.13
2022-11-01T18:33:39.695Z,101435.31
2022-11-01T18:36:16.232Z,101460.53
2022-11-01T18:38:58.108Z,101447.47
2022-11-01T18:41:28.312Z,101459.69
2022-11-01T18:43:58.765Z,101465.75
2022-11-01T18:46:57.077Z,101468.38
2022-11-01T18:49:28.478Z,101461.41
2022-11-01T18:51:58.674Z,101454.47
2022-11-01T18:54:31.789Z,101439.63
2022-11-01T18:57:15.985Z,101447.47
2022-11-01T18:59:49.652Z,101444.88
2022-11-01T19:02:22.821Z,101443.13
2022-11-01T19:05:18.568Z,101420.50
2022-11-01T19:08:10.773Z,101449.22
2022-11-01T19:10:42.462Z,101450.06
2022-11-01T19:13:35.501Z,101439.59
2022-11-01T19:16:10.157Z,101431.78
2022-11-01T19:18:43.409Z,101442.22
2022-11-01T19:21:19.376Z,101442.22
2022-11-01T19:23:52.006Z,101443.94
2022-11-01T19:26:36.248Z,101449.16
2022-11-01T19:29:13.103Z,101439.56
2022-11-01T19:31:45.523Z,101423.06
2022-11-01T19:34:20.489Z,101443.03
2022-11-01T19:36:52.856Z,101440.41
2022-11-01T19:39:34.241Z,101436.94
2022-11-01T19:42:28.261Z,101440.41
2022-11-01T19:45:10.490Z,101434.31
2022-11-01T19:47:43.572Z,101417.81
2022-11-01T19:50:21.455Z,101436.06
2022-11-01T19:52:53.279Z,101432.59
2022-11-01T19:55:36.190Z,101443.88
2022-11-01T19:58:44.188Z,101442.97
2022-11-01T20:01:17.482Z,101446.44
2022-11-01T20:03:55.675Z,101431.69
2022-11-01T20:06:37.463Z,101442.97
2022-11-01T20:09:19.492Z,101451.69
2022-11-01T20:11:49.935Z,101452.56
2022-11-01T20:14:20.613Z,101446.47
2022-11-01T20:16:50.849Z,101436.03
2022-11-01T20:19:21.243Z,101436.88
2022-11-01T20:21:52.001Z,101456.00
2022-11-01T20:24:22.631Z,101431.63
2022-11-01T20:26:53.305Z,101427.28
2022-11-01T20:29:23.874Z,101422.94
2022-11-01T20:31:53.953Z,101435.94
2022-11-01T20:34:25.819Z,101433.34
2022-11-01T20:37:29.724Z,101438.56
2022-11-01T20:39:46.155Z,101409.03
2022-11-01T20:42:16.274Z,101449.00
2022-11-01T20:44:46.486Z,101443.75
2022-11-01T20:47:16.586Z,101440.25
2022-11-01T20:49:46.748Z,101448.09
2022-11-01T20:52:38.550Z,101436.81
2022-11-01T20:55:09.525Z,101435.03
2022-11-01T20:57:39.627Z,101436.75
2022-11-01T21:00:13.350Z,101433.31
2022-11-01T21:02:43.572Z,101438.53
2022-11-01T21:05:30.317Z,101435.03
2022-11-01T21:08:05.498Z,101443.72
2022-11-01T21:10:37.965Z,101428.06
2022-11-01T21:13:21.556Z,101433.28
2022-11-01T21:15:54.709Z,101430.66
2022-11-01T21:18:31.115Z,101431.50
2022-11-01T21:21:11.409Z,101429.75
2022-11-01T21:23:46.341Z,101419.34
2022-11-01T21:26:18.437Z,101408.91
2022-11-01T21:29:01.956Z,101426.22
2022-11-01T21:31:38.926Z,101414.06
2022-11-01T21:34:12.528Z,101423.59
2022-11-01T21:36:46.950Z,101409.75
2022-11-01T21:39:35.741Z,101434.06
2022-11-01T21:42:30.871Z,101433.19
2022-11-01T21:45:22.883Z,101434.06
2022-11-01T21:47:53.974Z,101423.69
2022-11-01T21:50:24.193Z,101443.69
2022-11-01T21:52:54.908Z,101442.81
2022-11-01T21:55:25.210Z,101442.81
2022-11-01T21:57:55.473Z,101428.06
2022-11-01T22:00:25.771Z,101453.31
2022-11-01T22:02:55.968Z,101441.16
2022-11-01T22:05:26.139Z,101444.63
2022-11-01T22:07:56.275Z,101449.81
2022-11-01T22:10:26.341Z,101404.63
2022-11-01T22:12:56.519Z,101442.84
2022-11-01T22:15:26.592Z,101446.31
2022-11-01T22:17:57.271Z,101448.94
2022-11-01T22:20:27.460Z,101442.84
2022-11-01T22:22:57.691Z,101434.13
2022-11-01T22:25:28.574Z,101437.59
2022-11-01T22:27:58.732Z,101436.72
2022-11-01T22:30:29.032Z,101442.81
2022-11-01T22:32:59.217Z,101437.66
2022-11-01T22:35:29.592Z,101446.34
2022-11-01T22:38:00.259Z,101436.78
2022-11-01T22:40:30.790Z,101426.31
2022-11-01T22:43:01.152Z,101429.81
2022-11-01T22:45:41.689Z,101439.41
2022-11-01T22:48:17.760Z,101424.66
2022-11-01T22:50:48.294Z,101435.97
2022-11-01T22:53:24.450Z,101425.56
2022-11-01T22:55:55.591Z,101443.84
2022-11-01T22:58:38.301Z,101447.31
2022-11-01T23:01:19.570Z,101434.31
2022-11-01T23:03:53.916Z,101445.59
2022-11-01T23:06:35.337Z,101449.97
2022-11-01T23:09:15.073Z,101445.63
2022-11-01T23:12:11.343Z,101439.53
2022-11-01T23:14:45.410Z,101449.94
2022-11-01T23:17:35.497Z,101434.31
2022-11-01T23:20:06.427Z,101454.31
2022-11-01T23:22:36.857Z,101449.09
2022-11-01T23:25:08.734Z,101456.06
2022-11-01T23:27:39.320Z,101449.13
2022-11-01T23:30:09.885Z,101443.03
2022-11-01T23:32:40.527Z,101448.22
2022-11-01T23:35:14.887Z,101443.00
2022-11-01T23:37:45.837Z,101443.00
2022-11-01T23:40:21.478Z,101438.66
2022-11-01T23:42:51.813Z,101447.34
2022-11-01T23:45:28.952Z,101450.84
2022-11-01T23:48:00.105Z,101429.94
2022-11-01T23:50:34.370Z,101443.03
2022-11-01T23:53:09.832Z,101446.50
2022-11-01T23:55:44.091Z,101445.63
2022-11-01T23:58:22.469Z,101448.22
